sensor_id;sensor_type;location;lat;lon;timestamp;P1;durP1;ratioP1;P2;durP2;ratioP2
11572;SDS011;5842;52.426;4.886;2022-12-24T00:01:35;38.57;;;6.07;;
11572;SDS011;5842;52.426;4.886;2022-12-24T00:04:03;34.03;;;6.20;;
11572;SDS011;5842;52.426;4.886;2022-12-24T00:06:30;36.30;;;6.03;;
11572;SDS011;5842;52.426;4.886;2022-12-24T00:08:58;30.27;;;5.93;;
11572;SDS011;5842;52.426;4.886;2022-12-24T00:11:25;35.80;;;6.83;;
11572;SDS011;5842;52.426;4.886;2022-12-24T00:13:53;27.53;;;5.87;;
11572;SDS011;5842;52.426;4.886;2022-12-24T00:16:20;31.70;;;6.47;;
11572;SDS011;5842;52.426;4.886;2022-12-24T00:18:49;34.90;;;6.20;;
11572;SDS011;5842;52.426;4.886;2022-12-24T00:21:17;36.20;;;5.80;;
11572;SDS011;5842;52.426;4.886;2022-12-24T00:23:44;33.00;;;5.63;;
11572;SDS011;5842;52.426;4.886;2022-12-24T00:26:12;37.60;;;5.90;;
11572;SDS011;5842;52.426;4.886;2022-12-24T00:28:39;33.73;;;5.73;;
11572;SDS011;5842;52.426;4.886;2022-12-24T00:31:07;34.47;;;6.10;;
11572;SDS011;5842;52.426;4.886;2022-12-24T00:33:35;33.47;;;6.10;;
11572;SDS011;5842;52.426;4.886;2022-12-24T00:36:05;34.37;;;5.93;;
11572;SDS011;5842;52.426;4.886;2022-12-24T00:38:32;35.57;;;6.23;;
11572;SDS011;5842;52.426;4.886;2022-12-24T00:41:00;29.47;;;5.40;;
11572;SDS011;5842;52.426;4.886;2022-12-24T00:43:28;34.93;;;6.33;;
11572;SDS011;5842;52.426;4.886;2022-12-24T00:45:56;35.23;;;6.37;;
11572;SDS011;5842;52.426;4.886;2022-12-24T00:48:24;32.67;;;6.47;;
11572;SDS011;5842;52.426;4.886;2022-12-24T00:50:51;44.87;;;6.50;;
11572;SDS011;5842;52.426;4.886;2022-12-24T00:53:21;31.47;;;6.40;;
11572;SDS011;5842;52.426;4.886;2022-12-24T00:55:48;41.67;;;6.53;;
11572;SDS011;5842;52.426;4.886;2022-12-24T00:58:16;31.60;;;5.53;;
11572;SDS011;5842;52.426;4.886;2022-12-24T01:00:43;42.93;;;6.27;;
11572;SDS011;5842;52.426;4.886;2022-12-24T01:03:13;41.73;;;6.43;;
11572;SDS011;5842;52.426;4.886;2022-12-24T01:05:40;34.17;;;5.80;;
11572;SDS011;5842;52.426;4.886;2022-12-24T01:08:08;38.60;;;6.47;;
11572;SDS011;5842;52.426;4.886;2022-12-24T01:10:37;34.50;;;6.20;;
11572;SDS011;5842;52.426;4.886;2022-12-24T01:13:04;33.07;;;5.90;;
11572;SDS011;5842;52.426;4.886;2022-12-24T01:15:32;38.93;;;6.97;;
11572;SDS011;5842;52.426;4.886;2022-12-24T01:17:59;35.43;;;6.30;;
11572;SDS011;5842;52.426;4.886;2022-12-24T01:20:27;33.80;;;6.00;;
11572;SDS011;5842;52.426;4.886;2022-12-24T01:22:57;38.43;;;6.60;;
11572;SDS011;5842;52.426;4.886;2022-12-24T01:25:27;28.17;;;5.70;;
11572;SDS011;5842;52.426;4.886;2022-12-24T01:27:59;40.67;;;6.20;;
11572;SDS011;5842;52.426;4.886;2022-12-24T01:30:26;33.27;;;5.97;;
11572;SDS011;5842;52.426;4.886;2022-12-24T01:32:53;41.97;;;6.20;;
11572;SDS011;5842;52.426;4.886;2022-12-24T01:35:21;30.83;;;5.37;;
11572;SDS011;5842;52.426;4.886;2022-12-24T01:37:48;38.03;;;5.97;;
11572;SDS011;5842;52.426;4.886;2022-12-24T01:40:16;30.73;;;4.97;;
11572;SDS011;5842;52.426;4.886;2022-12-24T01:43:04;36.67;;;6.47;;
11572;SDS011;5842;52.426;4.886;2022-12-24T01:45:53;35.50;;;6.33;;
11572;SDS011;5842;52.426;4.886;2022-12-24T01:48:33;32.00;;;6.13;;
11572;SDS011;5842;52.426;4.886;2022-12-24T01:51:03;31.30;;;5.60;;
11572;SDS011;5842;52.426;4.886;2022-12-24T01:53:31;38.07;;;6.83;;
11572;SDS011;5842;52.426;4.886;2022-12-24T01:55:59;34.73;;;5.67;;
11572;SDS011;5842;52.426;4.886;2022-12-24T01:58:29;35.77;;;6.50;;
11572;SDS011;5842;52.426;4.886;2022-12-24T02:00:58;32.70;;;5.70;;
11572;SDS011;5842;52.426;4.886;2022-12-24T02:03:25;31.80;;;6.23;;
11572;SDS011;5842;52.426;4.886;2022-12-24T02:05:55;34.87;;;6.20;;
11572;SDS011;5842;52.426;4.886;2022-12-24T02:08:24;38.03;;;5.70;;
11572;SDS011;5842;52.426;4.886;2022-12-24T02:11:08;35.03;;;6.40;;
11572;SDS011;5842;52.426;4.886;2022-12-24T02:13:37;40.93;;;5.83;;
11572;SDS011;5842;52.426;4.886;2022-12-24T02:16:08;41.80;;;5.97;;
11572;SDS011;5842;52.426;4.886;2022-12-24T02:18:40;44.17;;;6.77;;
11572;SDS011;5842;52.426;4.886;2022-12-24T02:21:22;36.90;;;5.93;;
11572;SDS011;5842;52.426;4.886;2022-12-24T02:24:17;45.93;;;6.73;;
11572;SDS011;5842;52.426;4.886;2022-12-24T02:27:05;36.60;;;6.20;;
11572;SDS011;5842;52.426;4.886;2022-12-24T02:32:19;35.57;;;6.37;;
11572;SDS011;5842;52.426;4.886;2022-12-24T02:34:50;46.93;;;6.67;;
11572;SDS011;5842;52.426;4.886;2022-12-24T02:37:19;39.27;;;7.13;;
11572;SDS011;5842;52.426;4.886;2022-12-24T02:39:49;40.03;;;6.77;;
11572;SDS011;5842;52.426;4.886;2022-12-24T02:42:19;51.57;;;7.33;;
11572;SDS011;5842;52.426;4.886;2022-12-24T02:44:50;44.73;;;6.70;;
11572;SDS011;5842;52.426;4.886;2022-12-24T02:47:21;39.60;;;6.73;;
11572;SDS011;5842;52.426;4.886;2022-12-24T02:49:50;46.27;;;7.37;;
11572;SDS011;5842;52.426;4.886;2022-12-24T02:52:27;40.87;;;6.90;;
11572;SDS011;5842;52.426;4.886;2022-12-24T02:54:55;51.03;;;7.70;;
11572;SDS011;5842;52.426;4.886;2022-12-24T02:57:24;47.90;;;7.00;;
11572;SDS011;5842;52.426;4.886;2022-12-24T02:59:58;57.20;;;7.77;;
11572;SDS011;5842;52.426;4.886;2022-12-24T03:02:33;41.70;;;7.50;;
11572;SDS011;5842;52.426;4.886;2022-12-24T03:05:05;41.57;;;7.30;;
11572;SDS011;5842;52.426;4.886;2022-12-24T03:07:37;36.80;;;6.07;;
11572;SDS011;5842;52.426;4.886;2022-12-24T03:10:11;45.13;;;6.60;;
11572;SDS011;5842;52.426;4.886;2022-12-24T03:12:41;41.07;;;6.93;;
11572;SDS011;5842;52.426;4.886;2022-12-24T03:15:11;46.37;;;6.87;;
11572;SDS011;5842;52.426;4.886;2022-12-24T03:17:41;42.43;;;6.73;;
11572;SDS011;5842;52.426;4.886;2022-12-24T03:20:10;51.63;;;7.27;;
11572;SDS011;5842;52.426;4.886;2022-12-24T03:22:38;40.50;;;6.50;;
11572;SDS011;5842;52.426;4.886;2022-12-24T03:25:05;40.53;;;6.70;;
11572;SDS011;5842;52.426;4.886;2022-12-24T03:27:33;49.57;;;7.00;;
11572;SDS011;5842;52.426;4.886;2022-12-24T03:30:01;37.37;;;6.13;;
11572;SDS011;5842;52.426;4.886;2022-12-24T03:32:30;43.83;;;6.80;;
11572;SDS011;5842;52.426;4.886;2022-12-24T03:34:59;33.30;;;6.20;;
11572;SDS011;5842;52.426;4.886;2022-12-24T03:37:29;40.10;;;6.00;;
11572;SDS011;5842;52.426;4.886;2022-12-24T03:39:56;39.43;;;6.10;;
11572;SDS011;5842;52.426;4.886;2022-12-24T03:42:24;52.80;;;7.40;;
11572;SDS011;5842;52.426;4.886;2022-12-24T03:44:51;51.33;;;7.30;;
11572;SDS011;5842;52.426;4.886;2022-12-24T03:47:19;51.00;;;7.43;;
11572;SDS011;5842;52.426;4.886;2022-12-24T03:49:46;41.13;;;6.13;;
11572;SDS011;5842;52.426;4.886;2022-12-24T03:52:15;41.50;;;6.93;;
11572;SDS011;5842;52.426;4.886;2022-12-24T03:54:43;36.63;;;5.60;;
11572;SDS011;5842;52.426;4.886;2022-12-24T03:57:10;41.30;;;6.37;;
11572;SDS011;5842;52.426;4.886;2022-12-24T03:59:37;37.77;;;6.33;;
11572;SDS011;5842;52.426;4.886;2022-12-24T04:02:05;34.37;;;6.03;;
11572;SDS011;5842;52.426;4.886;2022-12-24T04:04:32;44.77;;;5.70;;
11572;SDS011;5842;52.426;4.886;2022-12-24T04:07:01;43.37;;;5.80;;
11572;SDS011;5842;52.426;4.886;2022-12-24T04:09:30;32.97;;;5.20;;
11572;SDS011;5842;52.426;4.886;2022-12-24T04:12:01;33.27;;;5.60;;
11572;SDS011;5842;52.426;4.886;2022-12-24T04:14:28;42.90;;;6.50;;
11572;SDS011;5842;52.426;4.886;2022-12-24T04:16:56;50.73;;;7.30;;
11572;SDS011;5842;52.426;4.886;2022-12-24T04:19:23;44.50;;;6.80;;
11572;SDS011;5842;52.426;4.886;2022-12-24T04:21:50;38.17;;;6.13;;
11572;SDS011;5842;52.426;4.886;2022-12-24T04:24:18;41.60;;;6.17;;
11572;SDS011;5842;52.426;4.886;2022-12-24T04:26:47;37.37;;;6.63;;
11572;SDS011;5842;52.426;4.886;2022-12-24T04:29:14;42.63;;;6.60;;
11572;SDS011;5842;52.426;4.886;2022-12-24T04:31:41;37.70;;;6.07;;
11572;SDS011;5842;52.426;4.886;2022-12-24T04:34:09;43.97;;;6.47;;
11572;SDS011;5842;52.426;4.886;2022-12-24T04:36:36;38.13;;;6.30;;
11572;SDS011;5842;52.426;4.886;2022-12-24T04:39:04;33.00;;;5.73;;
11572;SDS011;5842;52.426;4.886;2022-12-24T04:41:31;41.33;;;6.10;;
11572;SDS011;5842;52.426;4.886;2022-12-24T04:44:00;35.80;;;7.03;;
11572;SDS011;5842;52.426;4.886;2022-12-24T04:46:28;31.50;;;6.10;;
11572;SDS011;5842;52.426;4.886;2022-12-24T04:48:56;37.03;;;6.60;;
11572;SDS011;5842;52.426;4.886;2022-12-24T04:51:24;38.73;;;5.73;;
11572;SDS011;5842;52.426;4.886;2022-12-24T04:53:52;33.17;;;6.57;;
11572;SDS011;5842;52.426;4.886;2022-12-24T04:56:21;36.47;;;6.00;;
11572;SDS011;5842;52.426;4.886;2022-12-24T04:58:49;33.83;;;6.40;;
11572;SDS011;5842;52.426;4.886;2022-12-24T05:01:18;38.27;;;6.33;;
11572;SDS011;5842;52.426;4.886;2022-12-24T05:03:46;42.70;;;6.33;;
11572;SDS011;5842;52.426;4.886;2022-12-24T05:06:14;40.93;;;6.73;;
11572;SDS011;5842;52.426;4.886;2022-12-24T05:08:43;38.27;;;6.10;;
11572;SDS011;5842;52.426;4.886;2022-12-24T05:11:10;43.30;;;6.57;;
11572;SDS011;5842;52.426;4.886;2022-12-24T05:13:39;36.73;;;5.60;;
11572;SDS011;5842;52.426;4.886;2022-12-24T05:16:08;38.03;;;5.27;;
11572;SDS011;5842;52.426;4.886;2022-12-24T05:18:37;31.90;;;5.80;;
11572;SDS011;5842;52.426;4.886;2022-12-24T05:21:06;42.77;;;5.90;;
11572;SDS011;5842;52.426;4.886;2022-12-24T05:23:34;35.10;;;7.17;;
11572;SDS011;5842;52.426;4.886;2022-12-24T05:26:22;29.67;;;5.53;;
11572;SDS011;5842;52.426;4.886;2022-12-24T05:28:52;37.30;;;6.33;;
11572;SDS011;5842;52.426;4.886;2022-12-24T05:31:20;38.40;;;6.37;;
11572;SDS011;5842;52.426;4.886;2022-12-24T05:33:50;40.07;;;6.33;;
11572;SDS011;5842;52.426;4.886;2022-12-24T05:36:19;40.37;;;6.23;;
11572;SDS011;5842;52.426;4.886;2022-12-24T05:38:49;41.53;;;6.80;;
11572;SDS011;5842;52.426;4.886;2022-12-24T05:41:16;37.87;;;6.07;;
11572;SDS011;5842;52.426;4.886;2022-12-24T05:43:44;47.00;;;7.97;;
11572;SDS011;5842;52.426;4.886;2022-12-24T05:46:13;31.47;;;6.07;;
11572;SDS011;5842;52.426;4.886;2022-12-24T05:48:41;45.67;;;6.80;;
11572;SDS011;5842;52.426;4.886;2022-12-24T05:51:11;34.77;;;6.00;;
11572;SDS011;5842;52.426;4.886;2022-12-24T05:53:38;33.30;;;5.50;;
11572;SDS011;5842;52.426;4.886;2022-12-24T05:56:06;36.10;;;6.47;;
11572;SDS011;5842;52.426;4.886;2022-12-24T05:58:34;41.63;;;6.63;;
11572;SDS011;5842;52.426;4.886;2022-12-24T06:01:02;38.73;;;6.53;;
11572;SDS011;5842;52.426;4.886;2022-12-24T06:03:30;34.37;;;6.60;;
11572;SDS011;5842;52.426;4.886;2022-12-24T06:05:58;37.00;;;5.93;;
11572;SDS011;5842;52.426;4.886;2022-12-24T06:08:28;33.47;;;6.17;;
11572;SDS011;5842;52.426;4.886;2022-12-24T06:10:56;30.90;;;5.70;;
11572;SDS011;5842;52.426;4.886;2022-12-24T06:13:24;46.10;;;6.47;;
11572;SDS011;5842;52.426;4.886;2022-12-24T06:15:53;37.53;;;6.77;;
11572;SDS011;5842;52.426;4.886;2022-12-24T06:18:20;46.47;;;6.47;;
11572;SDS011;5842;52.426;4.886;2022-12-24T06:20:49;37.83;;;6.63;;
11572;SDS011;5842;52.426;4.886;2022-12-24T06:23:16;42.83;;;6.93;;
11572;SDS011;5842;52.426;4.886;2022-12-24T06:25:45;37.97;;;6.47;;
11572;SDS011;5842;52.426;4.886;2022-12-24T06:28:13;35.10;;;6.30;;
11572;SDS011;5842;52.426;4.886;2022-12-24T06:30:44;46.17;;;7.27;;
11572;SDS011;5842;52.426;4.886;2022-12-24T06:33:12;45.90;;;6.97;;
11572;SDS011;5842;52.426;4.886;2022-12-24T06:35:40;42.93;;;7.20;;
11572;SDS011;5842;52.426;4.886;2022-12-24T06:38:07;34.20;;;5.40;;
11572;SDS011;5842;52.426;4.886;2022-12-24T06:40:36;37.57;;;6.33;;
11572;SDS011;5842;52.426;4.886;2022-12-24T06:43:05;33.97;;;6.73;;
11572;SDS011;5842;52.426;4.886;2022-12-24T06:45:33;42.93;;;6.77;;
11572;SDS011;5842;52.426;4.886;2022-12-24T06:48:00;33.63;;;6.60;;
11572;SDS011;5842;52.426;4.886;2022-12-24T06:50:28;45.53;;;7.20;;
11572;SDS011;5842;52.426;4.886;2022-12-24T06:52:55;46.53;;;7.77;;
11572;SDS011;5842;52.426;4.886;2022-12-24T06:55:23;47.23;;;6.70;;
11572;SDS011;5842;52.426;4.886;2022-12-24T06:57:52;33.50;;;6.43;;
11572;SDS011;5842;52.426;4.886;2022-12-24T07:00:22;47.30;;;7.43;;
11572;SDS011;5842;52.426;4.886;2022-12-24T07:02:49;39.93;;;6.90;;
11572;SDS011;5842;52.426;4.886;2022-12-24T07:05:17;35.40;;;7.27;;
11572;SDS011;5842;52.426;4.886;2022-12-24T07:07:44;40.50;;;7.20;;
11572;SDS011;5842;52.426;4.886;2022-12-24T07:10:14;38.50;;;6.93;;
11572;SDS011;5842;52.426;4.886;2022-12-24T07:12:42;33.87;;;5.73;;
11572;SDS011;5842;52.426;4.886;2022-12-24T07:15:10;36.27;;;6.43;;
11572;SDS011;5842;52.426;4.886;2022-12-24T07:17:39;40.47;;;6.40;;
11572;SDS011;5842;52.426;4.886;2022-12-24T07:20:07;39.73;;;6.60;;
11572;SDS011;5842;52.426;4.886;2022-12-24T07:38:42;30.90;;;6.87;;
11572;SDS011;5842;52.426;4.886;2022-12-24T07:41:09;40.23;;;6.80;;
11572;SDS011;5842;52.426;4.886;2022-12-24T07:43:37;39.03;;;6.60;;
11572;SDS011;5842;52.426;4.886;2022-12-24T07:46:04;36.10;;;6.50;;
11572;SDS011;5842;52.426;4.886;2022-12-24T07:48:32;33.77;;;6.23;;
11572;SDS011;5842;52.426;4.886;2022-12-24T07:50:59;37.23;;;6.50;;
11572;SDS011;5842;52.426;4.886;2022-12-24T07:53:27;44.73;;;7.30;;
11572;SDS011;5842;52.426;4.886;2022-12-24T07:55:56;40.83;;;6.77;;
11572;SDS011;5842;52.426;4.886;2022-12-24T07:58:24;39.30;;;7.13;;
11572;SDS011;5842;52.426;4.886;2022-12-24T08:00:55;34.50;;;5.90;;
11572;SDS011;5842;52.426;4.886;2022-12-24T08:03:23;41.13;;;6.80;;
11572;SDS011;5842;52.426;4.886;2022-12-24T08:05:51;38.67;;;6.97;;
11572;SDS011;5842;52.426;4.886;2022-12-24T08:08:19;39.03;;;6.50;;
11572;SDS011;5842;52.426;4.886;2022-12-24T08:10:46;39.37;;;6.20;;
11572;SDS011;5842;52.426;4.886;2022-12-24T08:13:15;40.70;;;7.10;;
11572;SDS011;5842;52.426;4.886;2022-12-24T08:15:43;40.13;;;6.67;;
11572;SDS011;5842;52.426;4.886;2022-12-24T08:18:11;44.07;;;6.73;;
11572;SDS011;5842;52.426;4.886;2022-12-24T08:20:39;43.27;;;6.93;;
11572;SDS011;5842;52.426;4.886;2022-12-24T08:23:07;47.40;;;6.07;;
11572;SDS011;5842;52.426;4.886;2022-12-24T08:25:34;30.27;;;6.07;;
11572;SDS011;5842;52.426;4.886;2022-12-24T08:28:05;44.37;;;6.57;;
11572;SDS011;5842;52.426;4.886;2022-12-24T08:30:34;37.80;;;6.93;;
11572;SDS011;5842;52.426;4.886;2022-12-24T08:33:01;33.13;;;6.07;;
11572;SDS011;5842;52.426;4.886;2022-12-24T08:35:29;34.03;;;7.07;;
11572;SDS011;5842;52.426;4.886;2022-12-24T08:37:56;36.40;;;6.57;;
11572;SDS011;5842;52.426;4.886;2022-12-24T08:40:24;32.63;;;6.23;;
11572;SDS011;5842;52.426;4.886;2022-12-24T08:42:51;38.00;;;7.03;;
11572;SDS011;5842;52.426;4.886;2022-12-24T08:45:19;40.30;;;7.10;;
11572;SDS011;5842;52.426;4.886;2022-12-24T08:47:53;41.83;;;7.10;;
11572;SDS011;5842;52.426;4.886;2022-12-24T08:50:23;42.93;;;7.03;;
11572;SDS011;5842;52.426;4.886;2022-12-24T08:52:52;33.13;;;5.53;;
11572;SDS011;5842;52.426;4.886;2022-12-24T08:55:20;33.40;;;6.33;;
11572;SDS011;5842;52.426;4.886;2022-12-24T08:57:47;40.73;;;6.13;;
11572;SDS011;5842;52.426;4.886;2022-12-24T09:00:15;42.67;;;6.03;;
11572;SDS011;5842;52.426;4.886;2022-12-24T09:02:42;37.83;;;6.47;;
11572;SDS011;5842;52.426;4.886;2022-12-24T09:05:11;35.30;;;5.83;;
11572;SDS011;5842;52.426;4.886;2022-12-24T09:07:39;37.57;;;5.73;;
11572;SDS011;5842;52.426;4.886;2022-12-24T09:10:09;33.87;;;6.17;;
11572;SDS011;5842;52.426;4.886;2022-12-24T09:12:37;34.63;;;6.50;;
11572;SDS011;5842;52.426;4.886;2022-12-24T09:15:05;29.40;;;6.83;;
11572;SDS011;5842;52.426;4.886;2022-12-24T09:17:33;22.67;;;5.23;;
11572;SDS011;5842;52.426;4.886;2022-12-24T09:20:00;39.33;;;6.63;;
11572;SDS011;5842;52.426;4.886;2022-12-24T09:22:29;33.90;;;6.00;;
11572;SDS011;5842;52.426;4.886;2022-12-24T09:24:57;37.93;;;6.67;;
11572;SDS011;5842;52.426;4.886;2022-12-24T09:27:26;30.47;;;5.60;;
11572;SDS011;5842;52.426;4.886;2022-12-24T09:29:54;38.20;;;6.87;;
11572;SDS011;5842;52.426;4.886;2022-12-24T09:32:21;34.77;;;5.90;;
11572;SDS011;5842;52.426;4.886;2022-12-24T09:34:49;37.80;;;5.70;;
11572;SDS011;5842;52.426;4.886;2022-12-24T09:37:16;26.17;;;5.60;;
11572;SDS011;5842;52.426;4.886;2022-12-24T09:39:45;44.03;;;6.50;;
11572;SDS011;5842;52.426;4.886;2022-12-24T09:42:16;30.57;;;6.20;;
11572;SDS011;5842;52.426;4.886;2022-12-24T09:44:46;36.40;;;6.60;;
11572;SDS011;5842;52.426;4.886;2022-12-24T09:47:17;30.57;;;5.80;;
11572;SDS011;5842;52.426;4.886;2022-12-24T09:49:50;34.77;;;5.87;;
11572;SDS011;5842;52.426;4.886;2022-12-24T09:52:21;30.77;;;5.60;;
11572;SDS011;5842;52.426;4.886;2022-12-24T09:54:54;34.67;;;6.07;;
11572;SDS011;5842;52.426;4.886;2022-12-24T09:57:24;28.43;;;5.97;;
11572;SDS011;5842;52.426;4.886;2022-12-24T09:59:52;35.43;;;6.30;;
11572;SDS011;5842;52.426;4.886;2022-12-24T10:02:20;29.33;;;6.20;;
11572;SDS011;5842;52.426;4.886;2022-12-24T10:04:47;33.10;;;6.57;;
11572;SDS011;5842;52.426;4.886;2022-12-24T10:10:05;26.37;;;5.30;;
11572;SDS011;5842;52.426;4.886;2022-12-24T10:12:36;28.93;;;6.30;;
11572;SDS011;5842;52.426;4.886;2022-12-24T10:15:09;31.80;;;5.60;;
11572;SDS011;5842;52.426;4.886;2022-12-24T10:17:41;34.57;;;6.37;;
11572;SDS011;5842;52.426;4.886;2022-12-24T10:22:58;28.03;;;5.30;;
11572;SDS011;5842;52.426;4.886;2022-12-24T10:25:30;30.27;;;5.37;;
11572;SDS011;5842;52.426;4.886;2022-12-24T10:28:05;31.90;;;6.27;;
11572;SDS011;5842;52.426;4.886;2022-12-24T10:30:38;27.60;;;5.10;;
11572;SDS011;5842;52.426;4.886;2022-12-24T10:33:08;27.13;;;4.77;;
11572;SDS011;5842;52.426;4.886;2022-12-24T10:35:42;30.20;;;5.67;;
11572;SDS011;5842;52.426;4.886;2022-12-24T10:38:11;26.80;;;5.13;;
11572;SDS011;5842;52.426;4.886;2022-12-24T10:40:41;24.53;;;4.87;;
11572;SDS011;5842;52.426;4.886;2022-12-24T10:43:10;28.77;;;6.43;;
11572;SDS011;5842;52.426;4.886;2022-12-24T10:45:40;24.20;;;5.10;;
11572;SDS011;5842;52.426;4.886;2022-12-24T10:48:09;20.10;;;4.10;;
11572;SDS011;5842;52.426;4.886;2022-12-24T10:50:40;23.87;;;4.87;;
11572;SDS011;5842;52.426;4.886;2022-12-24T10:53:12;23.43;;;5.43;;
11572;SDS011;5842;52.426;4.886;2022-12-24T10:55:42;16.90;;;4.63;;
11572;SDS011;5842;52.426;4.886;2022-12-24T10:58:12;24.17;;;5.63;;
11572;SDS011;5842;52.426;4.886;2022-12-24T11:00:39;25.57;;;4.97;;
11572;SDS011;5842;52.426;4.886;2022-12-24T11:03:19;26.93;;;5.80;;
11572;SDS011;5842;52.426;4.886;2022-12-24T11:05:57;21.90;;;4.77;;
11572;SDS011;5842;52.426;4.886;2022-12-24T11:08:25;24.13;;;5.43;;
11572;SDS011;5842;52.426;4.886;2022-12-24T11:10:54;24.43;;;4.40;;
11572;SDS011;5842;52.426;4.886;2022-12-24T11:13:23;20.70;;;4.80;;
11572;SDS011;5842;52.426;4.886;2022-12-24T11:16:01;23.57;;;4.30;;
11572;SDS011;5842;52.426;4.886;2022-12-24T11:18:33;20.17;;;4.67;;
11572;SDS011;5842;52.426;4.886;2022-12-24T11:21:01;18.37;;;4.27;;
11572;SDS011;5842;52.426;4.886;2022-12-24T11:23:29;24.87;;;4.30;;
11572;SDS011;5842;52.426;4.886;2022-12-24T11:25:58;25.33;;;4.20;;
11572;SDS011;5842;52.426;4.886;2022-12-24T11:28:27;21.93;;;4.37;;
11572;SDS011;5842;52.426;4.886;2022-12-24T11:31:00;25.97;;;5.23;;
11572;SDS011;5842;52.426;4.886;2022-12-24T11:33:28;23.20;;;4.33;;
11572;SDS011;5842;52.426;4.886;2022-12-24T11:35:56;15.30;;;3.90;;
11572;SDS011;5842;52.426;4.886;2022-12-24T11:38:26;22.27;;;4.27;;
11572;SDS011;5842;52.426;4.886;2022-12-24T11:40:59;24.80;;;4.73;;
11572;SDS011;5842;52.426;4.886;2022-12-24T11:43:33;20.30;;;5.10;;
11572;SDS011;5842;52.426;4.886;2022-12-24T11:46:17;18.00;;;3.77;;
11572;SDS011;5842;52.426;4.886;2022-12-24T11:48:46;21.50;;;4.50;;
11572;SDS011;5842;52.426;4.886;2022-12-24T11:51:21;20.73;;;3.70;;
11572;SDS011;5842;52.426;4.886;2022-12-24T11:53:49;18.50;;;3.60;;
11572;SDS011;5842;52.426;4.886;2022-12-24T11:56:23;20.17;;;4.47;;
11572;SDS011;5842;52.426;4.886;2022-12-24T11:58:54;24.63;;;4.20;;
11572;SDS011;5842;52.426;4.886;2022-12-24T12:01:23;22.90;;;4.37;;
11572;SDS011;5842;52.426;4.886;2022-12-24T12:04:00;17.67;;;4.13;;
11572;SDS011;5842;52.426;4.886;2022-12-24T12:06:30;21.13;;;4.07;;
11572;SDS011;5842;52.426;4.886;2022-12-24T12:09:05;18.47;;;4.20;;
11572;SDS011;5842;52.426;4.886;2022-12-24T12:11:45;23.40;;;4.53;;
11572;SDS011;5842;52.426;4.886;2022-12-24T12:14:15;22.77;;;4.83;;
11572;SDS011;5842;52.426;4.886;2022-12-24T12:16:46;19.60;;;3.97;;
11572;SDS011;5842;52.426;4.886;2022-12-24T12:19:29;22.03;;;4.07;;
11572;SDS011;5842;52.426;4.886;2022-12-24T12:21:59;18.70;;;4.20;;
11572;SDS011;5842;52.426;4.886;2022-12-24T12:24:32;19.27;;;4.47;;
11572;SDS011;5842;52.426;4.886;2022-12-24T12:27:04;23.17;;;3.60;;
11572;SDS011;5842;52.426;4.886;2022-12-24T12:29:32;28.23;;;4.80;;
11572;SDS011;5842;52.426;4.886;2022-12-24T12:32:03;21.70;;;4.77;;
11572;SDS011;5842;52.426;4.886;2022-12-24T12:34:33;20.97;;;4.90;;
11572;SDS011;5842;52.426;4.886;2022-12-24T12:37:04;27.27;;;5.03;;
11572;SDS011;5842;52.426;4.886;2022-12-24T12:39:33;29.07;;;4.60;;
11572;SDS011;5842;52.426;4.886;2022-12-24T12:42:06;20.37;;;4.10;;
11572;SDS011;5842;52.426;4.886;2022-12-24T12:44:47;22.87;;;4.77;;
11572;SDS011;5842;52.426;4.886;2022-12-24T12:47:23;22.77;;;4.57;;
11572;SDS011;5842;52.426;4.886;2022-12-24T12:49:57;19.43;;;4.37;;
11572;SDS011;5842;52.426;4.886;2022-12-24T12:52:33;21.07;;;4.97;;
11572;SDS011;5842;52.426;4.886;2022-12-24T12:55:09;23.67;;;4.80;;
11572;SDS011;5842;52.426;4.886;2022-12-24T12:57:42;20.53;;;4.53;;
11572;SDS011;5842;52.426;4.886;2022-12-24T13:00:12;24.50;;;4.57;;
11572;SDS011;5842;52.426;4.886;2022-12-24T13:02:50;20.00;;;4.23;;
11572;SDS011;5842;52.426;4.886;2022-12-24T13:05:36;18.93;;;3.83;;
11572;SDS011;5842;52.426;4.886;2022-12-24T13:08:17;24.50;;;4.47;;
11572;SDS011;5842;52.426;4.886;2022-12-24T13:10:52;19.07;;;3.87;;
11572;SDS011;5842;52.426;4.886;2022-12-24T13:13:29;32.77;;;4.40;;
11572;SDS011;5842;52.426;4.886;2022-12-24T13:16:02;24.47;;;4.87;;
11572;SDS011;5842;52.426;4.886;2022-12-24T13:18:38;24.43;;;4.83;;
11572;SDS011;5842;52.426;4.886;2022-12-24T13:21:18;22.93;;;4.10;;
11572;SDS011;5842;52.426;4.886;2022-12-24T13:23:49;23.00;;;5.07;;
11572;SDS011;5842;52.426;4.886;2022-12-24T13:26:18;27.50;;;5.00;;
11572;SDS011;5842;52.426;4.886;2022-12-24T13:28:47;22.40;;;4.23;;
11572;SDS011;5842;52.426;4.886;2022-12-24T13:31:22;33.53;;;4.77;;
11572;SDS011;5842;52.426;4.886;2022-12-24T13:33:53;20.83;;;4.27;;
11572;SDS011;5842;52.426;4.886;2022-12-24T13:36:21;22.13;;;4.43;;
11572;SDS011;5842;52.426;4.886;2022-12-24T13:38:49;22.53;;;4.73;;
11572;SDS011;5842;52.426;4.886;2022-12-24T13:44:15;26.27;;;4.70;;
11572;SDS011;5842;52.426;4.886;2022-12-24T13:46:46;23.03;;;4.27;;
11572;SDS011;5842;52.426;4.886;2022-12-24T13:49:16;28.77;;;5.20;;
11572;SDS011;5842;52.426;4.886;2022-12-24T13:51:44;26.20;;;4.80;;
11572;SDS011;5842;52.426;4.886;2022-12-24T13:54:12;29.60;;;4.93;;
11572;SDS011;5842;52.426;4.886;2022-12-24T13:56:41;27.67;;;5.23;;
11572;SDS011;5842;52.426;4.886;2022-12-24T13:59:10;25.47;;;4.73;;
11572;SDS011;5842;52.426;4.886;2022-12-24T14:01:40;23.67;;;5.20;;
11572;SDS011;5842;52.426;4.886;2022-12-24T14:04:08;28.77;;;5.60;;
11572;SDS011;5842;52.426;4.886;2022-12-24T14:06:47;20.83;;;4.20;;
11572;SDS011;5842;52.426;4.886;2022-12-24T14:09:16;17.63;;;4.47;;
11572;SDS011;5842;52.426;4.886;2022-12-24T14:14:31;24.10;;;4.70;;
11572;SDS011;5842;52.426;4.886;2022-12-24T14:17:01;27.13;;;5.87;;
11572;SDS011;5842;52.426;4.886;2022-12-24T14:19:31;17.13;;;4.17;;
11572;SDS011;5842;52.426;4.886;2022-12-24T14:22:02;24.80;;;4.73;;
11572;SDS011;5842;52.426;4.886;2022-12-24T14:24:32;27.97;;;4.97;;
11572;SDS011;5842;52.426;4.886;2022-12-24T14:27:04;19.93;;;4.37;;
11572;SDS011;5842;52.426;4.886;2022-12-24T14:29:32;25.57;;;4.53;;
11572;SDS011;5842;52.426;4.886;2022-12-24T14:32:07;22.37;;;3.87;;
11572;SDS011;5842;52.426;4.886;2022-12-24T14:34:38;23.73;;;4.67;;
11572;SDS011;5842;52.426;4.886;2022-12-24T14:37:15;20.03;;;4.20;;
11572;SDS011;5842;52.426;4.886;2022-12-24T14:39:45;21.77;;;4.07;;
11572;SDS011;5842;52.426;4.886;2022-12-24T14:42:28;15.97;;;3.50;;
11572;SDS011;5842;52.426;4.886;2022-12-24T14:44:59;21.00;;;4.30;;
11572;SDS011;5842;52.426;4.886;2022-12-24T14:47:32;21.47;;;4.43;;
11572;SDS011;5842;52.426;4.886;2022-12-24T14:50:15;18.83;;;4.17;;
11572;SDS011;5842;52.426;4.886;2022-12-24T14:52:56;18.33;;;4.00;;
11572;SDS011;5842;52.426;4.886;2022-12-24T14:55:27;23.17;;;4.73;;
11572;SDS011;5842;52.426;4.886;2022-12-24T15:00:49;24.93;;;4.50;;
11572;SDS011;5842;52.426;4.886;2022-12-24T15:03:20;25.83;;;5.03;;
11572;SDS011;5842;52.426;4.886;2022-12-24T15:05:49;22.17;;;4.50;;
11572;SDS011;5842;52.426;4.886;2022-12-24T15:08:18;20.83;;;3.80;;
11572;SDS011;5842;52.426;4.886;2022-12-24T15:10:48;26.83;;;4.73;;
11572;SDS011;5842;52.426;4.886;2022-12-24T15:13:20;38.77;;;5.60;;
11572;SDS011;5842;52.426;4.886;2022-12-24T15:15:49;25.27;;;4.10;;
11572;SDS011;5842;52.426;4.886;2022-12-24T15:18:17;31.77;;;5.60;;
11572;SDS011;5842;52.426;4.886;2022-12-24T15:20:48;30.70;;;4.83;;
11572;SDS011;5842;52.426;4.886;2022-12-24T15:23:17;24.83;;;4.30;;
11572;SDS011;5842;52.426;4.886;2022-12-24T15:25:44;35.50;;;4.83;;
11572;SDS011;5842;52.426;4.886;2022-12-24T15:28:16;28.43;;;4.60;;
11572;SDS011;5842;52.426;4.886;2022-12-24T15:30:43;21.87;;;4.40;;
11572;SDS011;5842;52.426;4.886;2022-12-24T15:33:11;39.43;;;6.20;;
11572;SDS011;5842;52.426;4.886;2022-12-24T15:35:44;32.23;;;5.27;;
11572;SDS011;5842;52.426;4.886;2022-12-24T15:38:20;23.97;;;5.50;;